This is the latest recevied weather packets stored in our database for station/object SV9TNF-1. If no packets are shown the sender has not sent any weather packets the latest 10 day(s).
| Time | Temp. | Humidity | Pressure | Rain* | Wind** | Luminosity | Snow |
|---|---|---|---|---|---|---|---|
| 1777818546 | 14.44° C | 56% | 1004.7 hPa | 0 mm | 3.58 m/s, 331° | - | - |
| 1777818246 | 15° C | 56% | 1004.7 hPa | 0 mm | 3.58 m/s, 78° | - | - |
| 1777817946 | 15° C | 57% | 1004.7 hPa | 0 mm | 1.34 m/s, 124° | - | - |
| 1777817646 | 15° C | 57% | 1004.7 hPa | 0 mm | 1.79 m/s, 320° | - | - |
| 1777817346 | 15.56° C | 57% | 1004.1 hPa | 0 mm | 4.92 m/s, 124° | - | - |
| 1777817046 | 15.56° C | 55% | 1004.1 hPa | 0 mm | 1.34 m/s, 166° | - | - |
| 1777816746 | 16.11° C | 52% | 1004.1 hPa | 0 mm | 7.15 m/s, 119° | - | - |
| 1777816445 | 16.67° C | 54% | 1004.1 hPa | 0 mm | 1.79 m/s, 127° | - | - |
| 1777816145 | 16.67° C | 53% | 1004.1 hPa | 0 mm | 1.34 m/s, 128° | - | - |
| 1777815846 | 16.67° C | 51% | 1004.1 hPa | 0 mm | 2.68 m/s, 113° | - | - |
| 1777815545 | 17.22° C | 51% | 1004.1 hPa | 0 mm | 3.58 m/s, 139° | - | - |
| 1777815245 | 17.78° C | 48% | 1004.1 hPa | 0 mm | 4.47 m/s, 127° | - | - |
| 1777814945 | 17.78° C | 48% | 1004.1 hPa | 0 mm | 6.26 m/s, 107° | - | - |
| 1777814645 | 18.33° C | 47% | 1004.1 hPa | 0 mm | 4.02 m/s, 136° | - | - |
| 1777814345 | 17.22° C | 47% | 1004.1 hPa | 0 mm | 10.73 m/s, 134° | - | - |
| 1777814045 | 17.22° C | 47% | 1004.1 hPa | 0 mm | 9.39 m/s, 310° | - | - |
| 1777813744 | 18.33° C | 46% | 1004.1 hPa | 0 mm | 4.47 m/s, 165° | - | - |
| 1777813444 | 17.78° C | 46% | 1004.1 hPa | 0 mm | 13.86 m/s, 358° | - | - |
| 1777813144 | 18.33° C | 48% | 1004.1 hPa | 0 mm | 4.02 m/s, 132° | - | - |
| 1777812844 | 18.33° C | 47% | 1004.1 hPa | 0 mm | 4.92 m/s, 113° | - | - |
| 1777812544 | 17.78° C | 48% | 1004.1 hPa | 0 mm | 3.58 m/s, 90° | - | - |
| 1777812244 | 16.67° C | 53% | 1004.1 hPa | 0 mm | 13.41 m/s, 275° | - | - |
| 1777811944 | 16.67° C | 54% | 1004.1 hPa | 0 mm | 8.94 m/s, 309° | - | - |
| 1777811644 | 17.22° C | 53% | 1004.1 hPa | 0 mm | 8.05 m/s, 337° | - | - |
| 1777811344 | 16.67° C | 52% | 1004.1 hPa | 0 mm | 11.62 m/s, 316° | - | - |
* Rain latest hour (hover to see other rain measurements)
** Current wind speed in m/s (hover to see current wind gust speed)